sensor_id;sensor_type;location;lat;lon;timestamp;temperature;humidity
7720;DHT22;3902;49.474;8.616;2023-05-07T00:01:33;17.60;99.90
7720;DHT22;3902;49.474;8.616;2023-05-07T00:03:58;17.60;99.90
7720;DHT22;3902;49.474;8.616;2023-05-07T00:06:24;17.60;99.90
7720;DHT22;3902;49.474;8.616;2023-05-07T00:08:51;17.50;99.90
7720;DHT22;3902;49.474;8.616;2023-05-07T00:11:16;17.50;99.90
7720;DHT22;3902;49.474;8.616;2023-05-07T00:13:42;17.50;99.90
7720;DHT22;3902;49.474;8.616;2023-05-07T00:16:07;17.50;99.90
7720;DHT22;3902;49.474;8.616;2023-05-07T00:18:33;17.50;99.90
7720;DHT22;3902;49.474;8.616;2023-05-07T00:20:58;17.50;99.90
7720;DHT22;3902;49.474;8.616;2023-05-07T00:23:24;17.50;99.90
7720;DHT22;3902;49.474;8.616;2023-05-07T00:25:50;17.50;99.90
7720;DHT22;3902;49.474;8.616;2023-05-07T00:28:15;17.50;99.90
7720;DHT22;3902;49.474;8.616;2023-05-07T00:30:41;17.50;99.90
7720;DHT22;3902;49.474;8.616;2023-05-07T00:33:06;17.50;99.90
7720;DHT22;3902;49.474;8.616;2023-05-07T00:35:32;17.50;99.90
7720;DHT22;3902;49.474;8.616;2023-05-07T00:37:57;17.50;99.90
7720;DHT22;3902;49.474;8.616;2023-05-07T00:40:23;17.50;99.90
7720;DHT22;3902;49.474;8.616;2023-05-07T00:42:49;17.40;99.90
7720;DHT22;3902;49.474;8.616;2023-05-07T00:45:15;17.40;99.90
7720;DHT22;3902;49.474;8.616;2023-05-07T00:47:41;17.40;99.90
7720;DHT22;3902;49.474;8.616;2023-05-07T00:50:08;17.40;99.90
7720;DHT22;3902;49.474;8.616;2023-05-07T00:52:35;17.40;99.90
7720;DHT22;3902;49.474;8.616;2023-05-07T00:55:04;17.40;99.90
7720;DHT22;3902;49.474;8.616;2023-05-07T00:57:39;17.40;99.90
7720;DHT22;3902;49.474;8.616;2023-05-07T01:00:06;17.40;99.90
7720;DHT22;3902;49.474;8.616;2023-05-07T01:02:32;17.30;99.90
7720;DHT22;3902;49.474;8.616;2023-05-07T01:05:00;17.30;99.90
7720;DHT22;3902;49.474;8.616;2023-05-07T01:07:25;17.30;99.90
7720;DHT22;3902;49.474;8.616;2023-05-07T01:09:52;17.30;99.90
7720;DHT22;3902;49.474;8.616;2023-05-07T01:12:17;17.30;99.90
7720;DHT22;3902;49.474;8.616;2023-05-07T01:14:43;17.20;99.90
7720;DHT22;3902;49.474;8.616;2023-05-07T01:17:09;17.20;99.90
7720;DHT22;3902;49.474;8.616;2023-05-07T01:19:34;17.20;99.90
7720;DHT22;3902;49.474;8.616;2023-05-07T01:22:08;17.10;99.90
7720;DHT22;3902;49.474;8.616;2023-05-07T01:24:36;17.10;99.90
7720;DHT22;3902;49.474;8.616;2023-05-07T01:27:02;17.10;99.90
7720;DHT22;3902;49.474;8.616;2023-05-07T01:29:28;17.10;99.90
7720;DHT22;3902;49.474;8.616;2023-05-07T01:32:00;17.00;99.90
7720;DHT22;3902;49.474;8.616;2023-05-07T01:34:28;17.00;99.90
7720;DHT22;3902;49.474;8.616;2023-05-07T01:36:55;17.00;99.90
7720;DHT22;3902;49.474;8.616;2023-05-07T01:39:25;17.00;99.90
7720;DHT22;3902;49.474;8.616;2023-05-07T01:41:51;17.00;99.90
7720;DHT22;3902;49.474;8.616;2023-05-07T01:44:17;17.00;99.90
7720;DHT22;3902;49.474;8.616;2023-05-07T01:46:43;17.00;99.90
7720;DHT22;3902;49.474;8.616;2023-05-07T01:49:09;17.10;99.90
7720;DHT22;3902;49.474;8.616;2023-05-07T01:51:35;17.00;99.90
7720;DHT22;3902;49.474;8.616;2023-05-07T01:54:01;17.00;99.90
7720;DHT22;3902;49.474;8.616;2023-05-07T01:56:27;17.00;99.90
7720;DHT22;3902;49.474;8.616;2023-05-07T01:58:52;17.00;99.90
7720;DHT22;3902;49.474;8.616;2023-05-07T02:01:18;17.00;99.90
7720;DHT22;3902;49.474;8.616;2023-05-07T02:03:44;17.10;99.90
7720;DHT22;3902;49.474;8.616;2023-05-07T02:06:09;17.10;99.90
7720;DHT22;3902;49.474;8.616;2023-05-07T02:08:35;17.00;99.90
7720;DHT22;3902;49.474;8.616;2023-05-07T02:11:01;17.00;99.90
7720;DHT22;3902;49.474;8.616;2023-05-07T02:13:29;17.00;99.90
7720;DHT22;3902;49.474;8.616;2023-05-07T02:15:55;17.00;99.90
7720;DHT22;3902;49.474;8.616;2023-05-07T02:18:21;17.00;99.90
7720;DHT22;3902;49.474;8.616;2023-05-07T02:20:46;17.00;99.90
7720;DHT22;3902;49.474;8.616;2023-05-07T02:23:12;17.00;99.90
7720;DHT22;3902;49.474;8.616;2023-05-07T02:25:37;16.90;99.90
7720;DHT22;3902;49.474;8.616;2023-05-07T02:28:03;16.90;99.90
7720;DHT22;3902;49.474;8.616;2023-05-07T02:30:28;16.90;99.90
7720;DHT22;3902;49.474;8.616;2023-05-07T02:32:54;16.90;99.90
7720;DHT22;3902;49.474;8.616;2023-05-07T02:35:20;16.80;99.90
7720;DHT22;3902;49.474;8.616;2023-05-07T02:37:45;16.80;99.90
7720;DHT22;3902;49.474;8.616;2023-05-07T02:40:11;16.80;99.90
7720;DHT22;3902;49.474;8.616;2023-05-07T02:42:37;16.80;99.90
7720;DHT22;3902;49.474;8.616;2023-05-07T02:45:03;16.80;99.90
7720;DHT22;3902;49.474;8.616;2023-05-07T02:47:28;16.70;99.90
7720;DHT22;3902;49.474;8.616;2023-05-07T02:49:57;16.70;99.90
7720;DHT22;3902;49.474;8.616;2023-05-07T02:52:22;16.70;99.90
7720;DHT22;3902;49.474;8.616;2023-05-07T02:54:48;16.70;99.90
7720;DHT22;3902;49.474;8.616;2023-05-07T02:57:14;16.60;99.90
7720;DHT22;3902;49.474;8.616;2023-05-07T02:59:40;16.60;99.90
7720;DHT22;3902;49.474;8.616;2023-05-07T03:02:05;16.60;99.90
7720;DHT22;3902;49.474;8.616;2023-05-07T03:04:31;16.60;99.90
7720;DHT22;3902;49.474;8.616;2023-05-07T03:06:56;16.60;99.90
7720;DHT22;3902;49.474;8.616;2023-05-07T03:09:22;16.60;99.90
7720;DHT22;3902;49.474;8.616;2023-05-07T03:11:47;16.60;99.90
7720;DHT22;3902;49.474;8.616;2023-05-07T03:14:13;16.50;99.90
7720;DHT22;3902;49.474;8.616;2023-05-07T03:16:38;16.50;99.90
7720;DHT22;3902;49.474;8.616;2023-05-07T03:19:04;16.50;99.90
7720;DHT22;3902;49.474;8.616;2023-05-07T03:21:30;16.40;99.90
7720;DHT22;3902;49.474;8.616;2023-05-07T03:23:55;16.40;99.90
7720;DHT22;3902;49.474;8.616;2023-05-07T03:26:21;16.40;99.90
7720;DHT22;3902;49.474;8.616;2023-05-07T03:28:47;16.40;99.90
7720;DHT22;3902;49.474;8.616;2023-05-07T03:31:12;16.30;99.90
7720;DHT22;3902;49.474;8.616;2023-05-07T03:33:52;16.30;99.90
7720;DHT22;3902;49.474;8.616;2023-05-07T03:36:18;16.30;99.90
7720;DHT22;3902;49.474;8.616;2023-05-07T03:38:44;16.20;99.90
7720;DHT22;3902;49.474;8.616;2023-05-07T03:41:09;16.20;99.90
7720;DHT22;3902;49.474;8.616;2023-05-07T03:43:35;16.20;99.90
7720;DHT22;3902;49.474;8.616;2023-05-07T03:46:00;16.10;99.90
7720;DHT22;3902;49.474;8.616;2023-05-07T03:48:26;16.10;99.90
7720;DHT22;3902;49.474;8.616;2023-05-07T03:50:51;16.00;99.90
7720;DHT22;3902;49.474;8.616;2023-05-07T03:53:17;16.00;99.90
7720;DHT22;3902;49.474;8.616;2023-05-07T03:55:43;16.00;99.90
7720;DHT22;3902;49.474;8.616;2023-05-07T03:58:08;16.00;99.90
7720;DHT22;3902;49.474;8.616;2023-05-07T04:00:34;15.90;99.90
7720;DHT22;3902;49.474;8.616;2023-05-07T04:03:03;15.90;99.90
7720;DHT22;3902;49.474;8.616;2023-05-07T04:05:30;15.80;99.90
7720;DHT22;3902;49.474;8.616;2023-05-07T04:07:55;15.90;99.90
7720;DHT22;3902;49.474;8.616;2023-05-07T04:10:21;15.80;99.90
7720;DHT22;3902;49.474;8.616;2023-05-07T04:12:46;15.80;99.90
7720;DHT22;3902;49.474;8.616;2023-05-07T04:15:12;15.80;99.90
7720;DHT22;3902;49.474;8.616;2023-05-07T04:17:38;15.80;99.90
7720;DHT22;3902;49.474;8.616;2023-05-07T04:20:04;15.80;99.90
7720;DHT22;3902;49.474;8.616;2023-05-07T04:22:29;15.80;99.90
7720;DHT22;3902;49.474;8.616;2023-05-07T04:24:55;15.80;99.90
7720;DHT22;3902;49.474;8.616;2023-05-07T04:27:21;15.80;99.90
7720;DHT22;3902;49.474;8.616;2023-05-07T04:29:47;15.90;99.90
7720;DHT22;3902;49.474;8.616;2023-05-07T04:32:12;15.80;99.90
7720;DHT22;3902;49.474;8.616;2023-05-07T04:34:38;15.80;99.90
7720;DHT22;3902;49.474;8.616;2023-05-07T04:37:04;15.80;99.90
7720;DHT22;3902;49.474;8.616;2023-05-07T04:39:29;15.80;99.90
7720;DHT22;3902;49.474;8.616;2023-05-07T04:41:55;15.90;99.90
7720;DHT22;3902;49.474;8.616;2023-05-07T04:44:20;15.80;99.90
7720;DHT22;3902;49.474;8.616;2023-05-07T04:46:46;15.90;99.90
7720;DHT22;3902;49.474;8.616;2023-05-07T04:49:11;15.90;99.90
7720;DHT22;3902;49.474;8.616;2023-05-07T04:51:37;15.90;99.90
7720;DHT22;3902;49.474;8.616;2023-05-07T04:54:03;15.90;99.90
7720;DHT22;3902;49.474;8.616;2023-05-07T04:56:29;15.90;99.90
7720;DHT22;3902;49.474;8.616;2023-05-07T04:58:57;15.90;99.90
7720;DHT22;3902;49.474;8.616;2023-05-07T05:01:23;15.90;99.90
7720;DHT22;3902;49.474;8.616;2023-05-07T05:03:48;16.00;99.90
7720;DHT22;3902;49.474;8.616;2023-05-07T05:06:14;16.00;99.90
7720;DHT22;3902;49.474;8.616;2023-05-07T05:08:39;16.00;99.90
7720;DHT22;3902;49.474;8.616;2023-05-07T05:11:05;16.00;99.90
7720;DHT22;3902;49.474;8.616;2023-05-07T05:13:30;16.00;99.90
7720;DHT22;3902;49.474;8.616;2023-05-07T05:15:56;16.10;99.90
7720;DHT22;3902;49.474;8.616;2023-05-07T05:18:22;16.10;99.90
7720;DHT22;3902;49.474;8.616;2023-05-07T05:20:47;16.10;99.90
7720;DHT22;3902;49.474;8.616;2023-05-07T05:23:13;16.20;99.90
7720;DHT22;3902;49.474;8.616;2023-05-07T05:25:38;16.20;99.90
7720;DHT22;3902;49.474;8.616;2023-05-07T05:28:05;16.30;99.90
7720;DHT22;3902;49.474;8.616;2023-05-07T05:30:31;16.30;99.90
7720;DHT22;3902;49.474;8.616;2023-05-07T05:32:56;16.30;99.90
7720;DHT22;3902;49.474;8.616;2023-05-07T05:35:21;16.40;99.90
7720;DHT22;3902;49.474;8.616;2023-05-07T05:37:47;16.40;99.90
7720;DHT22;3902;49.474;8.616;2023-05-07T05:40:13;16.40;99.90
7720;DHT22;3902;49.474;8.616;2023-05-07T05:42:39;16.50;99.90
7720;DHT22;3902;49.474;8.616;2023-05-07T05:45:05;16.50;99.90
7720;DHT22;3902;49.474;8.616;2023-05-07T05:47:31;16.50;99.90
7720;DHT22;3902;49.474;8.616;2023-05-07T05:49:57;16.40;99.90
7720;DHT22;3902;49.474;8.616;2023-05-07T05:52:22;16.50;99.90
7720;DHT22;3902;49.474;8.616;2023-05-07T05:54:49;16.50;99.90
7720;DHT22;3902;49.474;8.616;2023-05-07T05:57:15;16.50;99.90
7720;DHT22;3902;49.474;8.616;2023-05-07T05:59:40;16.50;99.90
7720;DHT22;3902;49.474;8.616;2023-05-07T06:02:06;16.50;99.90
7720;DHT22;3902;49.474;8.616;2023-05-07T06:04:32;16.60;99.90
7720;DHT22;3902;49.474;8.616;2023-05-07T06:06:57;16.70;99.90
7720;DHT22;3902;49.474;8.616;2023-05-07T06:09:23;16.80;99.90
7720;DHT22;3902;49.474;8.616;2023-05-07T06:11:49;16.80;99.90
7720;DHT22;3902;49.474;8.616;2023-05-07T06:14:15;16.80;99.90
7720;DHT22;3902;49.474;8.616;2023-05-07T06:16:40;16.90;99.90
7720;DHT22;3902;49.474;8.616;2023-05-07T06:19:06;16.90;99.90
7720;DHT22;3902;49.474;8.616;2023-05-07T06:21:31;16.90;99.90
7720;DHT22;3902;49.474;8.616;2023-05-07T06:23:57;17.00;99.90
7720;DHT22;3902;49.474;8.616;2023-05-07T06:26:22;17.00;99.90
7720;DHT22;3902;49.474;8.616;2023-05-07T06:28:48;17.10;99.90
7720;DHT22;3902;49.474;8.616;2023-05-07T06:31:17;17.10;99.90
7720;DHT22;3902;49.474;8.616;2023-05-07T06:33:46;17.20;99.90
7720;DHT22;3902;49.474;8.616;2023-05-07T06:36:11;17.20;99.90
7720;DHT22;3902;49.474;8.616;2023-05-07T06:38:37;17.20;99.90
7720;DHT22;3902;49.474;8.616;2023-05-07T06:41:02;17.30;99.90
7720;DHT22;3902;49.474;8.616;2023-05-07T06:43:28;17.30;99.90
7720;DHT22;3902;49.474;8.616;2023-05-07T06:45:53;17.40;99.90
7720;DHT22;3902;49.474;8.616;2023-05-07T06:48:19;17.40;99.90
7720;DHT22;3902;49.474;8.616;2023-05-07T06:50:44;17.50;99.90
7720;DHT22;3902;49.474;8.616;2023-05-07T06:53:10;17.60;99.90
7720;DHT22;3902;49.474;8.616;2023-05-07T06:55:36;17.60;99.90
7720;DHT22;3902;49.474;8.616;2023-05-07T06:58:03;17.70;99.90
7720;DHT22;3902;49.474;8.616;2023-05-07T07:00:29;17.70;99.90
7720;DHT22;3902;49.474;8.616;2023-05-07T07:02:55;17.80;99.90
7720;DHT22;3902;49.474;8.616;2023-05-07T07:05:20;17.80;99.90
7720;DHT22;3902;49.474;8.616;2023-05-07T07:07:46;17.90;99.90
7720;DHT22;3902;49.474;8.616;2023-05-07T07:10:21;17.80;99.90
7720;DHT22;3902;49.474;8.616;2023-05-07T07:12:48;17.80;99.90
7720;DHT22;3902;49.474;8.616;2023-05-07T07:15:14;17.80;99.90
7720;DHT22;3902;49.474;8.616;2023-05-07T07:17:40;17.80;99.90
7720;DHT22;3902;49.474;8.616;2023-05-07T07:20:06;17.80;99.90
7720;DHT22;3902;49.474;8.616;2023-05-07T07:22:32;17.80;99.90
7720;DHT22;3902;49.474;8.616;2023-05-07T07:24:57;18.00;99.90
7720;DHT22;3902;49.474;8.616;2023-05-07T07:27:23;18.00;99.90
7720;DHT22;3902;49.474;8.616;2023-05-07T07:29:48;18.10;99.90
7720;DHT22;3902;49.474;8.616;2023-05-07T07:32:14;18.20;99.90
7720;DHT22;3902;49.474;8.616;2023-05-07T07:34:40;18.30;99.90
7720;DHT22;3902;49.474;8.616;2023-05-07T07:37:05;18.40;99.90
7720;DHT22;3902;49.474;8.616;2023-05-07T07:39:35;18.50;99.90
7720;DHT22;3902;49.474;8.616;2023-05-07T07:42:02;18.60;99.90
7720;DHT22;3902;49.474;8.616;2023-05-07T07:44:28;18.60;99.90
7720;DHT22;3902;49.474;8.616;2023-05-07T07:46:54;18.70;99.90
7720;DHT22;3902;49.474;8.616;2023-05-07T07:49:19;18.80;99.90
7720;DHT22;3902;49.474;8.616;2023-05-07T07:51:45;18.80;99.90
7720;DHT22;3902;49.474;8.616;2023-05-07T07:54:10;18.90;99.90
7720;DHT22;3902;49.474;8.616;2023-05-07T07:56:36;19.00;99.90
7720;DHT22;3902;49.474;8.616;2023-05-07T07:59:02;19.10;99.90
7720;DHT22;3902;49.474;8.616;2023-05-07T08:01:29;19.20;99.90
7720;DHT22;3902;49.474;8.616;2023-05-07T08:03:55;19.20;99.90
7720;DHT22;3902;49.474;8.616;2023-05-07T08:06:21;19.20;99.90
7720;DHT22;3902;49.474;8.616;2023-05-07T08:08:46;19.30;99.90
7720;DHT22;3902;49.474;8.616;2023-05-07T08:11:12;19.40;99.90
7720;DHT22;3902;49.474;8.616;2023-05-07T08:13:38;19.40;99.90
7720;DHT22;3902;49.474;8.616;2023-05-07T08:16:04;19.50;99.90
7720;DHT22;3902;49.474;8.616;2023-05-07T08:18:30;19.50;99.90
7720;DHT22;3902;49.474;8.616;2023-05-07T08:20:55;19.50;99.90
7720;DHT22;3902;49.474;8.616;2023-05-07T08:23:21;19.60;99.90
7720;DHT22;3902;49.474;8.616;2023-05-07T08:25:47;19.60;99.90
7720;DHT22;3902;49.474;8.616;2023-05-07T08:28:13;19.60;99.90
7720;DHT22;3902;49.474;8.616;2023-05-07T08:30:38;19.60;99.90
7720;DHT22;3902;49.474;8.616;2023-05-07T08:33:08;19.70;99.90
7720;DHT22;3902;49.474;8.616;2023-05-07T08:35:34;19.70;99.90
7720;DHT22;3902;49.474;8.616;2023-05-07T08:38:00;19.80;99.90
7720;DHT22;3902;49.474;8.616;2023-05-07T08:40:26;19.80;99.90
7720;DHT22;3902;49.474;8.616;2023-05-07T08:42:56;19.90;99.90
7720;DHT22;3902;49.474;8.616;2023-05-07T08:45:22;19.90;99.90
7720;DHT22;3902;49.474;8.616;2023-05-07T08:47:52;19.90;99.90
7720;DHT22;3902;49.474;8.616;2023-05-07T08:50:21;20.00;99.90
7720;DHT22;3902;49.474;8.616;2023-05-07T08:52:47;20.10;99.90
7720;DHT22;3902;49.474;8.616;2023-05-07T08:55:13;20.10;99.90
7720;DHT22;3902;49.474;8.616;2023-05-07T08:57:39;20.20;99.90
7720;DHT22;3902;49.474;8.616;2023-05-07T09:00:05;20.20;99.90
7720;DHT22;3902;49.474;8.616;2023-05-07T09:02:32;20.30;99.90
7720;DHT22;3902;49.474;8.616;2023-05-07T09:04:58;20.30;99.90
7720;DHT22;3902;49.474;8.616;2023-05-07T09:07:24;20.50;99.90
7720;DHT22;3902;49.474;8.616;2023-05-07T09:09:50;20.60;99.90
7720;DHT22;3902;49.474;8.616;2023-05-07T09:12:18;20.70;99.90
7720;DHT22;3902;49.474;8.616;2023-05-07T09:14:44;20.80;99.90
7720;DHT22;3902;49.474;8.616;2023-05-07T09:17:11;20.90;99.90
7720;DHT22;3902;49.474;8.616;2023-05-07T09:19:36;21.00;99.90
7720;DHT22;3902;49.474;8.616;2023-05-07T09:22:03;21.10;99.90
7720;DHT22;3902;49.474;8.616;2023-05-07T09:24:30;21.10;99.90
7720;DHT22;3902;49.474;8.616;2023-05-07T09:27:00;21.10;99.90
7720;DHT22;3902;49.474;8.616;2023-05-07T09:29:27;21.10;99.90
7720;DHT22;3902;49.474;8.616;2023-05-07T09:31:54;21.10;99.90
7720;DHT22;3902;49.474;8.616;2023-05-07T09:34:20;21.10;99.90
7720;DHT22;3902;49.474;8.616;2023-05-07T09:36:46;21.10;99.90
7720;DHT22;3902;49.474;8.616;2023-05-07T09:39:12;21.10;99.90
7720;DHT22;3902;49.474;8.616;2023-05-07T09:41:45;21.20;99.90
7720;DHT22;3902;49.474;8.616;2023-05-07T09:44:11;21.20;99.90
7720;DHT22;3902;49.474;8.616;2023-05-07T09:46:38;21.30;99.90
7720;DHT22;3902;49.474;8.616;2023-05-07T09:49:07;21.30;99.90
7720;DHT22;3902;49.474;8.616;2023-05-07T09:51:50;21.40;99.90
7720;DHT22;3902;49.474;8.616;2023-05-07T09:54:17;21.40;99.90
7720;DHT22;3902;49.474;8.616;2023-05-07T09:56:48;21.40;99.90
7720;DHT22;3902;49.474;8.616;2023-05-07T09:59:16;21.50;99.90
7720;DHT22;3902;49.474;8.616;2023-05-07T10:01:43;21.50;99.90
7720;DHT22;3902;49.474;8.616;2023-05-07T10:04:10;21.50;99.90
7720;DHT22;3902;49.474;8.616;2023-05-07T10:06:36;21.50;99.90
7720;DHT22;3902;49.474;8.616;2023-05-07T10:09:03;21.60;99.90
7720;DHT22;3902;49.474;8.616;2023-05-07T10:11:34;21.60;99.90
7720;DHT22;3902;49.474;8.616;2023-05-07T10:14:02;21.70;99.90
7720;DHT22;3902;49.474;8.616;2023-05-07T10:16:31;21.80;99.90
7720;DHT22;3902;49.474;8.616;2023-05-07T10:18:58;21.80;99.90
7720;DHT22;3902;49.474;8.616;2023-05-07T10:21:26;21.80;99.90
7720;DHT22;3902;49.474;8.616;2023-05-07T10:24:00;21.80;99.90
7720;DHT22;3902;49.474;8.616;2023-05-07T10:26:31;22.00;99.90
7720;DHT22;3902;49.474;8.616;2023-05-07T10:29:05;22.00;99.90
7720;DHT22;3902;49.474;8.616;2023-05-07T10:31:53;22.10;99.90
7720;DHT22;3902;49.474;8.616;2023-05-07T10:34:24;22.20;99.90
7720;DHT22;3902;49.474;8.616;2023-05-07T10:36:52;22.40;99.90
7720;DHT22;3902;49.474;8.616;2023-05-07T10:39:20;22.40;99.90
7720;DHT22;3902;49.474;8.616;2023-05-07T10:41:47;22.60;99.90
7720;DHT22;3902;49.474;8.616;2023-05-07T10:44:28;22.60;99.90
7720;DHT22;3902;49.474;8.616;2023-05-07T10:52:16;22.90;99.90
7720;DHT22;3902;49.474;8.616;2023-05-07T10:54:43;23.10;99.90
7720;DHT22;3902;49.474;8.616;2023-05-07T10:57:41;23.10;99.90
7720;DHT22;3902;49.474;8.616;2023-05-07T11:05:25;23.60;99.90
7720;DHT22;3902;49.474;8.616;2023-05-07T11:07:55;23.70;99.90
7720;DHT22;3902;49.474;8.616;2023-05-07T11:10:20;23.90;99.90
7720;DHT22;3902;49.474;8.616;2023-05-07T11:12:47;24.10;99.90
7720;DHT22;3902;49.474;8.616;2023-05-07T11:15:14;24.30;99.90
7720;DHT22;3902;49.474;8.616;2023-05-07T11:17:56;24.80;99.90
7720;DHT22;3902;49.474;8.616;2023-05-07T11:20:44;25.10;99.90
7720;DHT22;3902;49.474;8.616;2023-05-07T11:26:06;25.60;99.90
7720;DHT22;3902;49.474;8.616;2023-05-07T11:28:39;25.70;99.90
7720;DHT22;3902;49.474;8.616;2023-05-07T11:31:05;25.90;99.90
7720;DHT22;3902;49.474;8.616;2023-05-07T11:33:31;26.10;99.90
7720;DHT22;3902;49.474;8.616;2023-05-07T11:35:57;26.30;99.90
7720;DHT22;3902;49.474;8.616;2023-05-07T11:38:24;26.30;99.90
7720;DHT22;3902;49.474;8.616;2023-05-07T11:40:57;26.50;99.90
7720;DHT22;3902;49.474;8.616;2023-05-07T11:43:24;26.60;99.90
7720;DHT22;3902;49.474;8.616;2023-05-07T11:45:50;26.60;99.90
7720;DHT22;3902;49.474;8.616;2023-05-07T11:48:16;26.70;99.90
7720;DHT22;3902;49.474;8.616;2023-05-07T11:53:17;27.10;99.90
7720;DHT22;3902;49.474;8.616;2023-05-07T11:55:43;27.00;99.90
7720;DHT22;3902;49.474;8.616;2023-05-07T11:58:11;27.10;99.90
7720;DHT22;3902;49.474;8.616;2023-05-07T12:00:37;27.30;99.90
7720;DHT22;3902;49.474;8.616;2023-05-07T12:03:06;27.40;99.90
7720;DHT22;3902;49.474;8.616;2023-05-07T12:05:31;27.40;99.90
7720;DHT22;3902;49.474;8.616;2023-05-07T12:08:00;27.50;99.90
7720;DHT22;3902;49.474;8.616;2023-05-07T12:10:25;27.60;99.90
7720;DHT22;3902;49.474;8.616;2023-05-07T12:12:51;27.70;99.90
7720;DHT22;3902;49.474;8.616;2023-05-07T12:15:17;27.90;99.90
7720;DHT22;3902;49.474;8.616;2023-05-07T12:17:43;28.00;99.90
7720;DHT22;3902;49.474;8.616;2023-05-07T12:20:09;28.20;99.90
7720;DHT22;3902;49.474;8.616;2023-05-07T12:22:36;28.30;99.90
7720;DHT22;3902;49.474;8.616;2023-05-07T12:25:01;28.50;99.90
7720;DHT22;3902;49.474;8.616;2023-05-07T12:27:28;28.70;99.90
7720;DHT22;3902;49.474;8.616;2023-05-07T12:29:53;28.70;99.90
7720;DHT22;3902;49.474;8.616;2023-05-07T12:32:20;28.80;99.90
7720;DHT22;3902;49.474;8.616;2023-05-07T12:34:49;29.00;99.90
7720;DHT22;3902;49.474;8.616;2023-05-07T12:37:15;29.10;99.90
7720;DHT22;3902;49.474;8.616;2023-05-07T12:39:47;29.20;99.30
7720;DHT22;3902;49.474;8.616;2023-05-07T12:42:18;29.00;98.00
7720;DHT22;3902;49.474;8.616;2023-05-07T12:44:46;29.10;97.90
7720;DHT22;3902;49.474;8.616;2023-05-07T12:47:11;29.10;96.20
7720;DHT22;3902;49.474;8.616;2023-05-07T12:49:38;29.10;95.80
7720;DHT22;3902;49.474;8.616;2023-05-07T12:52:04;29.10;97.70
7720;DHT22;3902;49.474;8.616;2023-05-07T12:54:35;29.20;97.70
7720;DHT22;3902;49.474;8.616;2023-05-07T12:57:03;29.30;98.30
7720;DHT22;3902;49.474;8.616;2023-05-07T12:59:34;29.20;93.70
7720;DHT22;3902;49.474;8.616;2023-05-07T13:02:00;29.10;94.90
7720;DHT22;3902;49.474;8.616;2023-05-07T13:04:25;29.20;95.40
7720;DHT22;3902;49.474;8.616;2023-05-07T13:06:51;29.20;96.90
7720;DHT22;3902;49.474;8.616;2023-05-07T13:09:16;29.30;96.90
7720;DHT22;3902;49.474;8.616;2023-05-07T13:11:42;29.20;96.50
7720;DHT22;3902;49.474;8.616;2023-05-07T13:14:07;29.10;96.90
7720;DHT22;3902;49.474;8.616;2023-05-07T13:16:33;28.90;96.10
7720;DHT22;3902;49.474;8.616;2023-05-07T13:18:59;28.70;96.50
7720;DHT22;3902;49.474;8.616;2023-05-07T13:21:24;28.50;96.80
7720;DHT22;3902;49.474;8.616;2023-05-07T13:23:50;28.30;97.70
7720;DHT22;3902;49.474;8.616;2023-05-07T13:26:16;28.00;98.00
7720;DHT22;3902;49.474;8.616;2023-05-07T13:28:41;27.70;97.40
7720;DHT22;3902;49.474;8.616;2023-05-07T13:31:07;27.60;97.90
7720;DHT22;3902;49.474;8.616;2023-05-07T13:33:32;27.30;97.10
7720;DHT22;3902;49.474;8.616;2023-05-07T13:35:58;27.10;96.70
7720;DHT22;3902;49.474;8.616;2023-05-07T13:38:25;26.90;97.80
7720;DHT22;3902;49.474;8.616;2023-05-07T13:40:51;26.80;98.10
7720;DHT22;3902;49.474;8.616;2023-05-07T13:43:16;26.60;98.80
7720;DHT22;3902;49.474;8.616;2023-05-07T13:45:44;26.40;99.20
7720;DHT22;3902;49.474;8.616;2023-05-07T13:48:09;26.20;99.30
7720;DHT22;3902;49.474;8.616;2023-05-07T13:50:35;26.00;99.90
7720;DHT22;3902;49.474;8.616;2023-05-07T13:53:01;25.90;99.90
7720;DHT22;3902;49.474;8.616;2023-05-07T13:55:28;25.60;99.90
7720;DHT22;3902;49.474;8.616;2023-05-07T13:58:01;25.10;99.90
7720;DHT22;3902;49.474;8.616;2023-05-07T14:00:28;24.70;99.90
7720;DHT22;3902;49.474;8.616;2023-05-07T14:02:55;24.30;99.90
7720;DHT22;3902;49.474;8.616;2023-05-07T14:05:21;24.20;99.90
7720;DHT22;3902;49.474;8.616;2023-05-07T14:07:49;24.00;99.90
7720;DHT22;3902;49.474;8.616;2023-05-07T14:10:17;23.70;99.90
7720;DHT22;3902;49.474;8.616;2023-05-07T14:12:44;23.30;99.90
7720;DHT22;3902;49.474;8.616;2023-05-07T14:15:10;22.90;99.90
7720;DHT22;3902;49.474;8.616;2023-05-07T14:17:35;23.00;99.90
7720;DHT22;3902;49.474;8.616;2023-05-07T14:20:01;22.60;99.90
7720;DHT22;3902;49.474;8.616;2023-05-07T14:22:27;22.60;99.90
7720;DHT22;3902;49.474;8.616;2023-05-07T14:24:52;22.20;99.90
7720;DHT22;3902;49.474;8.616;2023-05-07T14:27:18;21.60;99.90
7720;DHT22;3902;49.474;8.616;2023-05-07T14:29:43;21.20;99.90
7720;DHT22;3902;49.474;8.616;2023-05-07T14:32:10;20.80;99.90
7720;DHT22;3902;49.474;8.616;2023-05-07T14:34:36;20.70;99.90
7720;DHT22;3902;49.474;8.616;2023-05-07T14:37:01;20.60;99.90
7720;DHT22;3902;49.474;8.616;2023-05-07T14:39:27;20.30;99.90
7720;DHT22;3902;49.474;8.616;2023-05-07T14:41:53;20.20;99.90
7720;DHT22;3902;49.474;8.616;2023-05-07T14:44:20;20.10;99.90
7720;DHT22;3902;49.474;8.616;2023-05-07T14:46:45;20.00;99.90
7720;DHT22;3902;49.474;8.616;2023-05-07T14:49:11;20.00;99.90
7720;DHT22;3902;49.474;8.616;2023-05-07T14:51:42;19.70;99.90
7720;DHT22;3902;49.474;8.616;2023-05-07T14:54:08;19.70;99.90
7720;DHT22;3902;49.474;8.616;2023-05-07T14:56:35;19.60;99.90
7720;DHT22;3902;49.474;8.616;2023-05-07T14:59:01;19.30;99.90
7720;DHT22;3902;49.474;8.616;2023-05-07T15:01:28;19.30;99.90
7720;DHT22;3902;49.474;8.616;2023-05-07T15:03:53;19.30;99.90
7720;DHT22;3902;49.474;8.616;2023-05-07T15:06:19;19.10;99.90
7720;DHT22;3902;49.474;8.616;2023-05-07T15:08:45;19.00;99.90
7720;DHT22;3902;49.474;8.616;2023-05-07T15:11:11;19.00;99.90
7720;DHT22;3902;49.474;8.616;2023-05-07T15:13:36;18.90;99.90
7720;DHT22;3902;49.474;8.616;2023-05-07T15:16:02;19.10;99.90
7720;DHT22;3902;49.474;8.616;2023-05-07T15:18:27;19.30;99.90
7720;DHT22;3902;49.474;8.616;2023-05-07T15:20:53;19.20;99.90
7720;DHT22;3902;49.474;8.616;2023-05-07T15:23:18;19.30;99.90
7720;DHT22;3902;49.474;8.616;2023-05-07T15:25:44;19.40;99.90
7720;DHT22;3902;49.474;8.616;2023-05-07T15:28:09;19.40;99.90
7720;DHT22;3902;49.474;8.616;2023-05-07T15:30:35;19.40;99.90
7720;DHT22;3902;49.474;8.616;2023-05-07T15:33:01;19.40;99.90
7720;DHT22;3902;49.474;8.616;2023-05-07T15:35:27;19.40;99.90
7720;DHT22;3902;49.474;8.616;2023-05-07T15:37:53;19.30;99.90
7720;DHT22;3902;49.474;8.616;2023-05-07T15:40:19;19.30;99.90
7720;DHT22;3902;49.474;8.616;2023-05-07T15:42:45;19.20;99.90
7720;DHT22;3902;49.474;8.616;2023-05-07T15:45:11;19.20;99.90
7720;DHT22;3902;49.474;8.616;2023-05-07T15:47:36;19.20;99.90
7720;DHT22;3902;49.474;8.616;2023-05-07T15:50:02;19.20;99.90
7720;DHT22;3902;49.474;8.616;2023-05-07T15:52:28;19.20;99.90
7720;DHT22;3902;49.474;8.616;2023-05-07T15:54:54;19.20;99.90
7720;DHT22;3902;49.474;8.616;2023-05-07T15:57:21;19.10;99.90
7720;DHT22;3902;49.474;8.616;2023-05-07T15:59:46;19.20;99.90
7720;DHT22;3902;49.474;8.616;2023-05-07T16:02:12;19.20;99.90
7720;DHT22;3902;49.474;8.616;2023-05-07T16:04:38;19.10;99.90
7720;DHT22;3902;49.474;8.616;2023-05-07T16:07:04;19.00;99.90
7720;DHT22;3902;49.474;8.616;2023-05-07T16:09:29;19.00;99.90
7720;DHT22;3902;49.474;8.616;2023-05-07T16:11:55;19.00;99.90
7720;DHT22;3902;49.474;8.616;2023-05-07T16:14:21;18.90;99.90